Time;durP1;ratioP1;P1;durP2;ratioP2;P2;SDS_P1;SDS_P2;PMS_P1;PMS_P2;Temp;Humidity;BMP_temperature;BMP_pressure;BME280_temperature;BME280_humidity;BME280_pressure;Samples;Min_cycle;Max_cycle;Signal;HPM_P1;HPM_P2
2023/12/29 00:02:35;;;;;;;16.90;4.60;;;;;;;4.29;92.18;100087.30;110801;1272;22116;-74
2023/12/29 00:05:26;;;;;;;15.00;4.40;;;;;;;4.33;92.37;100089.23;110779;1272;22226;-72
2023/12/29 00:08:17;;;;;;;11.80;3.20;;;;;;;4.38;92.66;100089.63;110786;1272;22169;-73
2023/12/29 00:11:08;;;;;;;10.10;3.00;;;;;;;4.43;92.87;100086.48;110812;1265;22343;-73
2023/12/29 00:13:58;;;;;;;11.50;3.20;;;;;;;4.50;93.11;100081.22;110789;1269;22882;-74
2023/12/29 00:16:49;;;;;;;14.00;4.20;;;;;;;4.57;93.14;100074.61;110814;1270;22281;-72
2023/12/29 00:19:38;;;;;;;;;;;;;;;4.64;93.32;100073.04;110810;1265;23334;-73
2023/12/29 00:22:29;;;;;;;13.90;3.50;;;;;;;4.71;93.36;100070.82;110805;1261;22161;-73
2023/12/29 00:25:20;;;;;;;14.60;4.40;;;;;;;4.76;93.08;100074.45;110790;1259;23031;-74
2023/12/29 00:28:11;;;;;;;11.20;4.30;;;;;;;4.80;93.18;100067.63;110725;1272;90568;-73
2023/12/29 00:31:02;;;;;;;15.40;4.20;;;;;;;4.85;93.18;100066.20;110770;1267;22229;-72
2023/12/29 00:33:52;;;;;;;;;;;;;;;4.88;93.09;100068.48;110816;1269;22407;-73
2023/12/29 00:36:43;;;;;;;14.80;3.50;;;;;;;4.89;93.16;100066.88;110807;1264;22845;-72
2023/12/29 00:39:38;;;;;;;17.00;4.10;;;;;;;4.92;93.21;100063.52;110829;1272;22335;-74
2023/12/29 00:42:29;;;;;;;17.30;4.60;;;;;;;4.96;93.12;100063.70;110810;1265;22263;-73
2023/12/29 00:45:18;;;;;;;;;;;;;;;4.97;93.01;100063.36;110819;1265;22559;-73
2023/12/29 00:48:09;;;;;;;12.70;3.90;;;;;;;4.97;93.13;100058.77;110791;1265;22182;-74
2023/12/29 00:51:01;;;;;;;13.60;3.40;;;;;;;4.97;92.95;100053.33;110804;1272;22317;-74
2023/12/29 00:53:52;;;;;;;15.40;3.70;;;;;;;4.98;93.02;100057.48;110731;1273;22136;-73
2023/12/29 00:56:48;;;;;;;14.20;3.80;;;;;;;4.99;92.92;100059.60;110742;1263;22181;-73
2023/12/29 00:59:41;;;;;;;13.10;3.70;;;;;;;4.98;93.03;100061.52;110718;1273;22152;-73
2023/12/29 01:02:32;;;;;;;11.50;3.30;;;;;;;4.98;92.90;100059.70;110814;1272;22566;-74
2023/12/29 01:05:23;;;;;;;15.40;3.80;;;;;;;4.97;92.94;100057.82;110821;1264;22173;-73
2023/12/29 01:08:15;;;;;;;11.30;2.80;;;;;;;4.97;92.97;100053.15;110807;1272;22170;-73
2023/12/29 01:11:06;;;;;;;10.40;3.10;;;;;;;4.97;93.03;100048.10;110782;1270;22238;-72
2023/12/29 01:13:56;;;;;;;14.00;3.70;;;;;;;4.98;93.18;100042.52;110801;1261;22192;-73
2023/12/29 01:16:45;;;;;;;;;;;;;;;5.00;93.06;100045.65;110856;1269;23084;-74
2023/12/29 01:19:36;;;;;;;16.60;4.30;;;;;;;4.98;93.14;100040.48;110799;1272;22879;-74
2023/12/29 01:22:27;;;;;;;13.10;3.50;;;;;;;4.98;92.96;100043.73;110768;1272;22347;-72
2023/12/29 01:25:18;;;;;;;12.50;3.10;;;;;;;4.95;92.85;100041.36;110795;1265;22150;-73
2023/12/29 01:28:09;;;;;;;9.80;2.90;;;;;;;4.92;92.83;100038.13;110764;1258;22130;-73
2023/12/29 01:31:00;;;;;;;10.30;3.20;;;;;;;4.91;93.07;100042.12;110811;1265;22961;-73
2023/12/29 01:33:51;;;;;;;18.00;3.80;;;;;;;4.91;93.03;100040.95;110801;1268;22480;-73
2023/12/29 01:36:42;;;;;;;14.50;3.90;;;;;;;4.90;92.94;100039.70;110807;1268;22243;-73
2023/12/29 01:39:34;;;;;;;12.00;3.30;;;;;;;4.90;93.16;100037.96;110788;1270;22174;-74
2023/12/29 01:42:24;;;;;;;12.90;3.20;;;;;;;4.89;93.05;100029.77;110813;1272;22701;-73
2023/12/29 01:45:21;;;;;;;;;;;;;;;4.89;93.16;100021.16;110759;1264;22343;-73
2023/12/29 01:48:11;;;;;;;13.40;3.40;;;;;;;4.89;93.15;100024.64;110828;1265;24318;-74
2023/12/29 01:51:02;;;;;;;12.20;2.90;;;;;;;4.89;93.17;100022.59;110814;1272;22190;-73
2023/12/29 01:53:55;;;;;;;10.60;3.40;;;;;;;4.90;93.12;100021.05;110821;1272;22281;-73
2023/12/29 01:56:46;;;;;;;13.10;3.30;;;;;;;4.91;93.17;100023.95;110766;1273;22929;-73
2023/12/29 01:59:38;;;;;;;12.10;3.60;;;;;;;4.92;93.19;100024.88;110747;1273;22145;-73
2023/12/29 02:02:29;;;;;;;13.50;3.70;;;;;;;4.92;93.13;100026.76;110768;1268;22135;-73
2023/12/29 02:05:24;;;;;;;11.20;2.80;;;;;;;4.92;93.15;100027.71;110716;1268;22129;-74
2023/12/29 02:08:15;;;;;;;14.40;3.90;;;;;;;4.93;93.09;100024.58;110824;1270;22374;-73
2023/12/29 02:11:06;;;;;;;17.00;4.20;;;;;;;4.93;92.98;100021.42;110828;1270;22169;-73
2023/12/29 02:13:57;;;;;;;12.90;2.80;;;;;;;4.92;92.84;100018.91;110802;1270;22265;-73
2023/12/29 02:16:57;;;;;;;13.20;3.50;;;;;;;4.92;92.84;100016.09;110819;1272;22170;-73
2023/12/29 02:19:50;;;;;;;11.80;3.00;;;;;;;4.92;92.71;100009.15;110800;1272;22100;-74
2023/12/29 02:22:41;;;;;;;9.30;2.80;;;;;;;4.91;92.75;99996.54;110777;1271;22169;-73
2023/12/29 02:25:32;;;;;;;10.10;2.60;;;;;;;4.89;92.72;99998.34;110728;1266;22139;-74
2023/12/29 02:28:27;;;;;;;12.10;3.20;;;;;;;4.88;92.63;99999.85;110805;1265;22212;-73
2023/12/29 02:31:21;;;;;;;9.40;2.20;;;;;;;4.87;92.70;99994.60;110772;1272;22205;-73
2023/12/29 02:34:13;;;;;;;15.00;2.40;;;;;;;4.86;92.61;99992.49;110812;1268;22111;-73
2023/12/29 02:37:05;;;;;;;8.10;2.20;;;;;;;4.85;92.66;99991.75;110785;1270;22158;-74
2023/12/29 02:39:58;;;;;;;12.40;2.90;;;;;;;4.84;92.58;99987.36;110797;1270;22162;-74
2023/12/29 02:42:49;;;;;;;14.90;3.60;;;;;;;4.83;92.64;99984.72;110774;1265;22223;-74
2023/12/29 02:45:40;;;;;;;12.30;3.00;;;;;;;4.82;92.63;99978.48;110781;1266;22259;-74
2023/12/29 02:48:31;;;;;;;12.30;3.00;;;;;;;4.82;92.64;99977.31;110782;1267;22130;-72
2023/12/29 02:51:21;;;;;;;14.30;3.80;;;;;;;4.82;92.68;99976.60;110795;1265;22961;-73
2023/12/29 02:54:12;;;;;;;14.30;2.90;;;;;;;4.81;92.53;99972.54;110776;1272;22376;-74
2023/12/29 02:57:03;;;;;;;11.90;2.90;;;;;;;4.81;92.54;99971.82;110824;1273;22237;-74
2023/12/29 02:59:54;;;;;;;12.40;2.80;;;;;;;4.79;92.52;99970.22;110787;1273;22171;-73
2023/12/29 03:02:45;;;;;;;14.10;3.50;;;;;;;4.78;92.59;99964.52;110704;1273;22256;-73
2023/12/29 03:05:36;;;;;;;17.10;4.50;;;;;;;4.76;92.55;99961.09;110727;1273;22136;-74
2023/12/29 03:08:27;;;;;;;15.20;3.90;;;;;;;4.75;92.58;99955.20;110791;1265;22293;-72
2023/12/29 03:11:18;;;;;;;9.50;2.90;;;;;;;4.73;92.58;99950.76;110793;1272;22280;-74
2023/12/29 03:14:09;;;;;;;22.60;5.60;;;;;;;4.72;92.45;99942.96;110816;1265;22094;-73
2023/12/29 03:17:00;;;;;;;13.60;2.70;;;;;;;4.70;92.30;99947.20;110818;1261;22237;-73
2023/12/29 03:19:52;;;;;;;13.60;2.90;;;;;;;4.68;92.37;99941.77;110821;1272;22841;-74
2023/12/29 03:22:43;;;;;;;10.00;2.70;;;;;;;4.65;92.35;99936.02;110800;1270;22804;-73
2023/12/29 03:25:33;;;;;;;13.30;3.20;;;;;;;4.63;92.16;99940.68;110794;1271;23095;-74
2023/12/29 03:28:22;;;;;;;;;;;;;;;4.61;92.28;99941.94;110819;1269;22404;-73
2023/12/29 03:31:14;;;;;;;12.60;3.30;;;;;;;4.57;92.17;99942.21;110724;1271;22434;-73
2023/12/29 03:34:05;;;;;;;8.10;2.30;;;;;;;4.55;92.20;99941.66;110722;1270;22894;-73
2023/12/29 03:36:54;;;;;;;;;;;;;;;4.52;92.30;99928.01;110833;1270;22312;-74
2023/12/29 03:39:44;;;;;;;10.60;2.50;;;;;;;4.50;92.28;99932.98;110829;1272;22153;-73
2023/12/29 03:42:36;;;;;;;10.30;2.40;;;;;;;4.47;92.33;99933.53;110795;1270;23029;-73
2023/12/29 03:45:27;;;;;;;13.00;3.10;;;;;;;4.45;92.38;99939.23;110809;1265;22300;-73
2023/12/29 03:48:17;;;;;;;18.50;2.90;;;;;;;4.44;92.41;99929.94;110803;1265;22315;-74
2023/12/29 03:51:08;;;;;;;10.50;2.70;;;;;;;4.44;92.48;99927.73;110801;1272;22349;-74
2023/12/29 03:53:59;;;;;;;14.10;2.40;;;;;;;4.44;92.49;99926.79;110844;1272;22323;-73
2023/12/29 03:56:50;;;;;;;13.60;3.30;;;;;;;4.42;92.37;99921.46;110764;1272;23024;-74
2023/12/29 03:59:40;;;;;;;12.50;3.40;;;;;;;4.42;92.35;99916.66;110748;1273;22233;-75
2023/12/29 04:02:31;;;;;;;13.50;2.60;;;;;;;4.39;92.21;99910.90;110849;1268;22846;-73
2023/12/29 04:05:22;;;;;;;12.30;2.30;;;;;;;4.37;92.15;99902.52;110802;1273;22323;-73
2023/12/29 04:08:13;;;;;;;9.10;2.00;;;;;;;4.35;92.10;99898.95;110804;1269;22073;-72
2023/12/29 04:11:05;;;;;;;8.00;1.90;;;;;;;4.32;91.96;99902.84;110830;1269;22808;-74
2023/12/29 04:13:56;;;;;;;7.50;1.60;;;;;;;4.29;92.16;99902.39;110810;1266;22163;-74
2023/12/29 04:16:46;;;;;;;9.90;2.00;;;;;;;4.28;92.24;99897.08;110811;1261;22405;-73
2023/12/29 04:19:37;;;;;;;13.50;2.40;;;;;;;4.27;92.23;99893.16;110793;1271;22220;-73
2023/12/29 04:22:28;;;;;;;8.80;1.70;;;;;;;4.26;92.12;99885.95;110827;1270;22331;-73
2023/12/29 04:25:19;;;;;;;8.50;2.30;;;;;;;4.24;92.19;99884.23;110823;1272;23101;-72
2023/12/29 04:28:10;;;;;;;10.20;2.10;;;;;;;4.24;92.10;99890.42;110796;1272;22127;-74
2023/12/29 04:31:01;;;;;;;10.70;2.00;;;;;;;4.23;92.09;99887.67;110825;1270;22165;-72
2023/12/29 04:33:53;;;;;;;7.00;1.80;;;;;;;4.22;92.04;99887.45;110805;1271;22166;-73
2023/12/29 04:36:44;;;;;;;9.50;2.10;;;;;;;4.21;91.99;99885.14;110827;1269;22138;-73
2023/12/29 04:39:35;;;;;;;9.40;2.50;;;;;;;4.19;92.02;99879.52;110802;1273;22256;-73
2023/12/29 04:42:26;;;;;;;9.50;2.30;;;;;;;4.18;92.10;99878.37;110841;1265;22563;-74
2023/12/29 04:45:16;;;;;;;10.60;2.00;;;;;;;4.18;92.25;99882.23;110827;1261;22441;-73
2023/12/29 04:48:08;;;;;;;13.30;2.80;;;;;;;4.18;92.50;99885.88;110798;1265;22201;-74
2023/12/29 04:50:59;;;;;;;11.20;1.90;;;;;;;4.18;92.42;99883.67;110827;1273;23082;-72
2023/12/29 04:53:50;;;;;;;9.40;2.20;;;;;;;4.17;92.61;99882.73;110874;1272;22327;-73
2023/12/29 04:56:41;;;;;;;9.10;1.80;;;;;;;4.16;92.65;99876.54;110848;1273;22108;-72
2023/12/29 04:59:31;;;;;;;5.30;1.70;;;;;;;4.16;92.89;99875.38;110872;1261;22153;-72
2023/12/29 05:02:22;;;;;;;7.40;1.60;;;;;;;4.17;93.10;99874.77;110812;1269;22165;-72
2023/12/29 05:05:13;;;;;;;8.60;1.90;;;;;;;4.18;93.05;99867.40;110821;1269;22129;-74
2023/12/29 05:08:05;;;;;;;6.70;1.70;;;;;;;4.18;93.16;99862.23;110851;1272;23061;-72
2023/12/29 05:10:56;;;;;;;8.80;2.30;;;;;;;4.18;93.16;99862.95;110854;1272;22099;-73
2023/12/29 05:13:47;;;;;;;8.70;1.90;;;;;;;4.19;93.30;99864.13;110838;1265;22150;-73
2023/12/29 05:16:36;;;;;;;;;;;;;;;4.21;93.54;99856.02;110862;1272;22336;-73
2023/12/29 05:19:27;;;;;;;10.60;2.20;;;;;;;4.22;93.68;99851.42;110833;1265;22135;-72
2023/12/29 05:22:17;;;;;;;;;;;;;;;4.25;93.82;99850.29;110842;1272;22419;-73
2023/12/29 05:25:09;;;;;;;10.00;2.00;;;;;;;4.26;93.93;99851.80;110851;1265;22096;-73
2023/12/29 05:28:00;;;;;;;7.00;1.90;;;;;;;4.29;94.14;99852.96;110841;1264;22184;-72
2023/12/29 05:30:49;;;;;;;;;;;;;;;4.34;94.22;99850.38;110832;1271;23114;-73
2023/12/29 05:33:39;;;;;;;9.80;1.80;;;;;;;4.36;94.13;99852.17;110861;1270;22190;-73
2023/12/29 05:36:30;;;;;;;7.00;1.80;;;;;;;4.40;94.34;99857.58;110823;1266;23025;-73
2023/12/29 05:39:22;;;;;;;12.50;2.10;;;;;;;4.44;94.24;99858.17;110828;1265;22963;-71
2023/12/29 05:42:12;;;;;;;11.60;2.30;;;;;;;4.48;94.55;99864.03;110842;1265;22800;-72
2023/12/29 05:45:01;;;;;;;;;;;;;;;4.52;94.50;99863.09;110868;1270;22300;-73
2023/12/29 05:47:52;;;;;;;9.10;2.20;;;;;;;4.54;94.60;99868.16;110865;1271;22480;-74
2023/12/29 05:50:41;;;;;;;;;;;;;;;4.56;94.48;99862.46;110828;1272;22567;-72
2023/12/29 05:53:32;;;;;;;9.90;1.90;;;;;;;4.58;94.57;99862.23;110819;1272;22361;-72
2023/12/29 05:56:22;;;;;;;7.30;1.50;;;;;;;4.61;94.64;99860.33;110828;1270;22251;-73
2023/12/29 05:59:13;;;;;;;6.90;1.50;;;;;;;4.63;94.56;99858.59;110852;1269;22976;-72
2023/12/29 06:02:02;;;;;;;;;;;;;;;4.66;94.51;99856.29;110423;1268;22568;-72
2023/12/29 06:04:53;;;;;;;9.80;2.20;;;;;;;4.66;94.61;99854.14;107770;1269;22639;-72
2023/12/29 06:07:44;;;;;;;9.50;2.50;;;;;;;4.67;94.60;99851.41;107661;1271;23952;-73
2023/12/29 06:10:36;;;;;;;12.70;2.90;;;;;;;4.67;94.49;99847.45;107619;1268;24375;-73
2023/12/29 06:13:28;;;;;;;11.70;2.80;;;;;;;4.67;94.59;99845.82;107601;1272;22523;-72
2023/12/29 06:16:24;;;;;;;8.50;2.00;;;;;;;4.66;94.56;99841.64;107861;1272;25291;-73
2023/12/29 06:19:16;;;;;;;10.40;1.90;;;;;;;4.66;94.67;99843.33;107707;1269;23303;-72
2023/12/29 06:22:11;;;;;;;10.90;2.30;;;;;;;4.66;94.59;99839.85;107884;1271;22530;-73
2023/12/29 06:25:02;;;;;;;7.20;1.80;;;;;;;4.63;94.37;99846.64;107741;1272;22562;-73
2023/12/29 06:27:54;;;;;;;7.50;1.80;;;;;;;4.62;94.40;99845.38;107808;1272;22741;-72
2023/12/29 06:30:45;;;;;;;7.50;1.80;;;;;;;4.60;94.27;99839.19;107793;1272;25453;-72
2023/12/29 06:33:36;;;;;;;7.40;1.90;;;;;;;4.57;94.35;99837.16;107770;1267;22531;-73
2023/12/29 06:36:27;;;;;;;10.50;1.90;;;;;;;4.55;94.49;99825.98;107818;1272;22582;-72
2023/12/29 06:39:18;;;;;;;10.10;2.20;;;;;;;4.55;94.63;99826.83;107927;1255;22573;-73
2023/12/29 06:42:09;;;;;;;9.60;2.20;;;;;;;4.54;94.90;99832.76;107781;1272;25156;-73
2023/12/29 06:45:00;;;;;;;10.40;2.90;;;;;;;4.56;94.93;99837.67;107807;1273;22613;-72
2023/12/29 06:47:51;;;;;;;11.30;2.10;;;;;;;4.56;94.90;99838.94;107785;1273;24215;-73
2023/12/29 06:50:42;;;;;;;8.80;1.80;;;;;;;4.56;95.01;99830.30;107650;1263;22575;-73
2023/12/29 06:53:33;;;;;;;11.40;2.10;;;;;;;4.59;95.01;99833.31;107675;1272;22622;-73
2023/12/29 06:56:24;;;;;;;7.80;1.70;;;;;;;4.61;95.26;99834.25;107703;1272;25333;-73
2023/12/29 06:59:14;;;;;;;9.60;1.80;;;;;;;4.64;95.22;99846.46;107715;1271;22653;-72
2023/12/29 07:02:05;;;;;;;8.20;1.60;;;;;;;4.67;95.21;99851.36;107640;1272;24344;-74
2023/12/29 07:04:56;;;;;;;6.90;1.70;;;;;;;4.70;95.30;99845.48;107724;1272;25544;-72
2023/12/29 07:07:47;;;;;;;9.50;1.80;;;;;;;4.73;95.34;99836.19;107652;1271;25458;-72
2023/12/29 07:10:38;;;;;;;9.20;1.70;;;;;;;4.75;95.29;99834.30;107741;1272;23030;-73
2023/12/29 07:13:29;;;;;;;11.00;2.10;;;;;;;4.78;95.38;99837.59;107666;1271;24330;-72
2023/12/29 07:16:20;;;;;;;8.60;1.80;;;;;;;4.80;95.40;99841.53;107654;1271;25378;-72
2023/12/29 07:19:11;;;;;;;7.00;2.00;;;;;;;4.84;95.29;99843.41;107648;1272;22638;-72
2023/12/29 07:22:02;;;;;;;6.10;1.40;;;;;;;4.86;95.31;99844.48;107654;1272;22562;-72
2023/12/29 07:24:53;;;;;;;6.70;1.60;;;;;;;4.88;95.27;99844.51;107582;1269;23943;-72
2023/12/29 07:27:44;;;;;;;8.00;1.50;;;;;;;4.90;95.28;99849.50;107627;1272;22531;-72
2023/12/29 07:30:35;;;;;;;7.60;1.60;;;;;;;4.93;95.39;99854.44;107639;1270;22732;-73
2023/12/29 07:33:26;;;;;;;5.70;1.40;;;;;;;4.97;95.47;99856.67;107695;1265;22540;-72
2023/12/29 07:36:17;;;;;;;7.00;1.90;;;;;;;5.00;95.41;99862.52;107812;1272;24239;-73
2023/12/29 07:39:08;;;;;;;7.70;1.60;;;;;;;5.03;95.57;99860.08;107619;1272;22633;-73
2023/12/29 07:41:59;;;;;;;6.70;1.60;;;;;;;5.09;95.68;99857.75;107575;1273;25196;-72
2023/12/29 07:44:51;;;;;;;7.80;2.00;;;;;;;5.13;95.63;99849.35;107538;1273;22667;-73
2023/12/29 07:47:42;;;;;;;10.90;2.10;;;;;;;5.18;95.63;99852.13;107741;1273;22602;-73
2023/12/29 07:50:33;;;;;;;8.10;1.60;;;;;;;5.21;95.63;99846.45;107856;1254;22537;-72
2023/12/29 07:53:24;;;;;;;10.20;1.80;;;;;;;5.26;95.66;99841.45;107863;1266;22701;-72
2023/12/29 07:56:15;;;;;;;7.70;1.40;;;;;;;5.33;95.59;99841.35;107797;1272;22551;-72
2023/12/29 07:59:06;;;;;;;8.00;2.00;;;;;;;5.37;95.46;99841.75;107806;1265;23443;-73
2023/12/29 08:01:58;;;;;;;10.00;1.70;;;;;;;5.42;95.60;99831.57;107858;1269;22527;-73
2023/12/29 08:04:49;;;;;;;10.90;1.70;;;;;;;5.46;95.50;99825.09;107835;1263;22641;-72
2023/12/29 08:07:40;;;;;;;8.00;1.40;;;;;;;5.52;95.46;99825.34;107760;1272;25430;-72
2023/12/29 08:10:31;;;;;;;9.10;2.10;;;;;;;5.58;95.45;99833.00;107804;1272;22970;-74
2023/12/29 08:13:23;;;;;;;8.20;1.30;;;;;;;5.65;95.38;99824.80;110771;1272;22143;-73
2023/12/29 08:16:13;;;;;;;5.70;1.20;;;;;;;5.72;95.27;99815.58;110787;1272;22250;-73
2023/12/29 08:19:02;;;;;;;;;;;;;;;5.80;95.20;99813.56;110805;1271;22367;-73
2023/12/29 08:21:54;;;;;;;9.90;2.20;;;;;;;5.86;95.14;99809.67;110803;1272;22144;-72
2023/12/29 08:24:45;;;;;;;10.10;1.60;;;;;;;5.96;95.02;99816.41;110793;1269;23237;-71
2023/12/29 08:27:36;;;;;;;5.40;1.70;;;;;;;6.05;95.03;99823.33;110756;1270;22461;-72
2023/12/29 08:30:27;;;;;;;6.00;1.20;;;;;;;6.13;94.92;99822.67;110782;1267;22256;-71
2023/12/29 08:33:18;;;;;;;5.60;1.30;;;;;;;6.22;94.77;99824.74;110781;1273;22272;-71
2023/12/29 08:36:09;;;;;;;10.20;1.70;;;;;;;6.29;94.73;99823.97;110801;1273;22145;-72
2023/12/29 08:39:00;;;;;;;7.00;1.60;;;;;;;6.38;94.67;99822.49;110812;1272;22323;-72
2023/12/29 08:41:50;;;;;;;;;;;;;;;6.48;94.58;99827.83;110743;1273;22879;-71
2023/12/29 08:44:40;;;;;;;9.40;2.00;;;;;;;6.56;94.51;99825.13;110714;1273;22855;-71
2023/12/29 08:47:31;;;;;;;6.20;1.50;;;;;;;6.63;94.44;99828.22;110789;1272;22981;-71
2023/12/29 08:50:21;;;;;;;;;;;;;;;6.71;94.50;99825.35;110782;1270;22327;-71
2023/12/29 08:53:12;;;;;;;7.10;1.50;;;;;;;6.81;94.56;99828.06;110774;1273;22366;-71
2023/12/29 08:56:03;;;;;;;4.10;1.10;;;;;;;6.92;94.46;99832.39;110782;1271;22803;-72
2023/12/29 08:58:54;;;;;;;10.50;1.40;;;;;;;7.03;94.16;99828.19;110787;1273;22156;-71
2023/12/29 09:01:45;;;;;;;6.50;1.00;;;;;;;7.11;94.31;99835.20;110759;1270;22355;-72
2023/12/29 09:04:34;;;;;;;;;;;;;;;7.18;94.12;99839.02;110809;1273;22340;-72
2023/12/29 09:07:26;;;;;;;4.90;1.00;;;;;;;7.27;93.92;99846.05;110812;1270;22185;-71
2023/12/29 09:10:17;;;;;;;6.50;1.30;;;;;;;7.39;93.96;99851.38;110793;1266;22345;-72
2023/12/29 09:13:09;;;;;;;6.90;1.00;;;;;;;7.48;93.86;99849.61;110781;1269;22894;-72
2023/12/29 09:16:01;;;;;;;4.40;0.90;;;;;;;7.57;93.59;99849.02;110782;1267;22749;-71
2023/12/29 09:18:52;;;;;;;6.30;0.90;;;;;;;7.66;93.46;99842.86;110774;1267;22316;-72
2023/12/29 09:21:41;;;;;;;;;;;;;;;7.74;93.17;99853.92;110803;1265;22393;-72
2023/12/29 09:24:31;;;;;;;7.10;1.50;;;;;;;7.80;93.20;99842.75;110783;1269;22733;-73
2023/12/29 09:27:20;;;;;;;;;;;;;;;7.86;93.14;99841.67;110801;1267;22422;-72
2023/12/29 09:30:12;;;;;;;6.20;0.90;;;;;;;7.94;92.95;99851.11;110781;1265;23226;-73
2023/12/29 09:33:03;;;;;;;6.40;1.00;;;;;;;8.01;92.76;99853.08;110810;1273;23106;-72
2023/12/29 09:35:54;;;;;;;4.70;0.90;;;;;;;8.08;92.63;99854.72;110067;1267;573932;-72
2023/12/29 09:38:46;;;;;;;6.70;0.90;;;;;;;8.15;92.47;99853.36;110840;1272;22215;-71
2023/12/29 09:41:40;;;;;;;6.50;1.10;;;;;;;8.23;92.08;99855.37;110774;1263;23030;-72
2023/12/29 09:44:36;;;;;;;4.50;0.90;;;;;;;8.32;92.01;99854.61;110787;1272;22188;-73
2023/12/29 09:47:27;;;;;;;5.00;0.90;;;;;;;8.41;91.78;99857.94;110722;1272;22121;-72
2023/12/29 09:50:19;;;;;;;5.20;0.90;;;;;;;8.49;91.31;99857.16;110722;1273;22247;-72
2023/12/29 09:53:13;;;;;;;5.00;1.00;;;;;;;8.59;91.09;99851.12;110758;1267;23149;-72
2023/12/29 09:56:05;;;;;;;4.30;0.90;;;;;;;8.67;90.90;99853.48;110778;1267;22303;-72
2023/12/29 09:58:57;;;;;;;5.40;1.00;;;;;;;8.74;90.95;99853.58;110796;1272;22311;-72
2023/12/29 10:01:49;;;;;;;6.40;0.90;;;;;;;8.82;90.68;99854.75;110706;1264;22311;-72
2023/12/29 10:04:39;;;;;;;6.00;0.90;;;;;;;8.90;90.52;99850.74;110735;1267;22235;-72
2023/12/29 10:07:33;;;;;;;4.90;1.00;;;;;;;8.97;90.42;99854.38;110785;1270;22842;-72
2023/12/29 10:10:24;;;;;;;6.50;1.20;;;;;;;9.05;90.00;99853.35;110742;1266;22894;-72
2023/12/29 10:13:17;;;;;;;5.70;0.80;;;;;;;9.11;90.13;99854.06;110758;1265;22167;-72
2023/12/29 10:16:16;;;;;;;6.60;1.00;;;;;;;9.17;89.35;99857.69;110751;1266;22178;-72
2023/12/29 10:19:18;;;;;;;4.50;1.20;;;;;;;9.26;89.63;99860.27;110791;1270;22268;-73
2023/12/29 10:22:16;;;;;;;3.90;0.80;;;;;;;9.35;88.72;99858.07;110772;1272;22117;-73
2023/12/29 10:25:08;;;;;;;3.50;0.70;;;;;;;9.45;88.48;99849.66;110737;1266;22373;-72
2023/12/29 10:27:59;;;;;;;3.00;0.70;;;;;;;9.53;87.88;99843.64;110799;1266;22273;-73
2023/12/29 10:30:50;;;;;;;5.30;0.70;;;;;;;9.60;87.88;99848.67;110764;1270;22327;-72
2023/12/29 10:33:41;;;;;;;5.30;1.00;;;;;;;9.67;87.40;99851.20;110732;1270;22224;-72
2023/12/29 10:36:49;;;;;;;3.50;0.70;;;;;;;9.74;87.22;99852.73;110659;1263;22304;-72
2023/12/29 10:39:39;;;;;;;4.10;0.80;;;;;;;9.81;86.62;99856.61;110702;1266;22416;-72
2023/12/29 10:42:30;;;;;;;2.60;0.60;;;;;;;9.89;85.97;99847.95;110686;1267;22989;-72
2023/12/29 10:45:22;;;;;;;3.10;0.60;;;;;;;9.94;85.91;99850.42;110792;1265;22312;-72
2023/12/29 10:48:12;;;;;;;4.00;1.00;;;;;;;9.97;85.49;99847.52;110788;1265;22475;-73
2023/12/29 10:51:03;;;;;;;3.80;0.70;;;;;;;10.00;85.76;99845.14;110800;1272;22159;-72
2023/12/29 10:53:58;;;;;;;4.70;0.70;;;;;;;10.02;85.13;99844.62;110757;1266;22248;-72
2023/12/29 10:57:01;;;;;;;3.80;0.70;;;;;;;10.06;85.17;99842.74;110812;1272;22202;-72
2023/12/29 10:59:58;;;;;;;3.90;0.80;;;;;;;10.09;84.90;99836.44;110803;1272;22339;-73
2023/12/29 11:02:56;;;;;;;3.80;0.70;;;;;;;10.11;83.65;99824.98;110778;1267;22318;-72
2023/12/29 11:05:46;;;;;;;4.90;0.70;;;;;;;10.14;84.02;99823.26;110775;1267;22242;-72
2023/12/29 11:08:38;;;;;;;3.00;0.60;;;;;;;10.17;83.28;99826.29;110771;1267;22220;-72
2023/12/29 11:11:28;;;;;;;4.20;0.60;;;;;;;10.20;83.20;99825.52;110787;1267;23058;-72
2023/12/29 11:14:20;;;;;;;2.40;0.60;;;;;;;10.23;83.16;99823.84;110759;1265;22821;-72
2023/12/29 11:17:11;;;;;;;3.00;0.60;;;;;;;10.24;83.57;99821.36;110741;1270;22226;-73
2023/12/29 11:20:05;;;;;;;4.10;1.00;;;;;;;10.27;82.87;99823.43;110700;1265;22356;-72
2023/12/29 11:22:55;;;;;;;5.00;1.00;;;;;;;10.29;82.46;99810.52;110768;1267;22300;-73
2023/12/29 11:25:48;;;;;;;3.10;0.70;;;;;;;10.31;82.37;99811.23;110745;1267;22221;-73
2023/12/29 11:28:39;;;;;;;2.70;0.70;;;;;;;10.35;81.85;99810.96;110733;1265;22503;-73
2023/12/29 11:31:30;;;;;;;4.60;1.00;;;;;;;10.39;82.33;99810.36;110747;1270;23095;-73
2023/12/29 11:34:25;;;;;;;4.80;0.70;;;;;;;10.44;82.27;99800.56;110766;1264;22174;-72
2023/12/29 11:37:28;;;;;;;3.80;0.80;;;;;;;10.47;81.14;99803.75;110772;1265;22213;-73
2023/12/29 11:40:23;;;;;;;3.60;0.50;;;;;;;10.47;80.93;99798.02;110773;1272;22966;-72
2023/12/29 11:43:17;;;;;;;3.50;0.70;;;;;;;10.47;80.98;99797.61;110779;1264;22172;-72
2023/12/29 11:46:28;;;;;;;5.10;0.70;;;;;;;10.47;80.49;99798.33;110681;1267;22179;-72
2023/12/29 11:49:19;;;;;;;3.00;0.60;;;;;;;10.47;80.61;99795.95;110763;1267;22368;-71
2023/12/29 11:52:10;;;;;;;5.00;0.70;;;;;;;10.45;80.59;99794.14;110782;1267;23258;-72
2023/12/29 11:55:09;;;;;;;2.90;0.50;;;;;;;10.44;80.41;99792.20;110786;1265;23372;-73
2023/12/29 11:58:01;;;;;;;4.20;0.80;;;;;;;10.43;79.85;99787.33;110777;1272;23143;-72
2023/12/29 12:00:52;;;;;;;4.20;0.70;;;;;;;10.42;80.34;99785.53;110776;1272;22191;-72
2023/12/29 12:03:43;;;;;;;5.20;0.90;;;;;;;10.42;80.33;99791.23;110760;1272;22212;-72
2023/12/29 12:06:43;;;;;;;3.40;0.70;;;;;;;10.41;80.05;99796.69;110724;1265;23059;-72
2023/12/29 12:09:34;;;;;;;3.00;0.60;;;;;;;10.41;79.70;99800.36;110793;1267;22358;-72
2023/12/29 12:12:42;;;;;;;3.80;0.70;;;;;;;10.41;79.36;99801.70;110729;1265;22346;-72
2023/12/29 12:15:37;;;;;;;5.60;0.90;;;;;;;10.45;79.89;99794.64;110780;1264;22393;-73
2023/12/29 12:18:28;;;;;;;4.20;0.80;;;;;;;10.47;79.55;99794.37;110738;1257;22443;-72
2023/12/29 12:21:22;;;;;;;5.70;0.80;;;;;;;10.48;79.36;99792.70;110750;1265;23222;-74
2023/12/29 12:24:12;;;;;;;4.80;0.60;;;;;;;10.49;79.04;99793.94;110799;1265;22494;-72
2023/12/29 12:27:04;;;;;;;5.70;0.90;;;;;;;10.49;78.99;99799.17;110736;1264;113566;-72
2023/12/29 12:29:58;;;;;;;3.90;0.70;;;;;;;10.50;78.02;99799.52;110796;1272;22100;-72
2023/12/29 12:32:57;;;;;;;3.50;0.70;;;;;;;10.50;78.32;99795.84;110799;1272;22363;-72
2023/12/29 12:35:59;;;;;;;6.20;0.90;;;;;;;10.51;78.54;99799.50;110797;1272;22276;-72
2023/12/29 12:38:55;;;;;;;6.10;0.80;;;;;;;10.53;78.49;99795.15;110725;1272;22612;-73
2023/12/29 12:41:46;;;;;;;4.20;1.10;;;;;;;10.54;78.16;99798.67;110772;1272;22269;-72
2023/12/29 12:44:42;;;;;;;8.10;1.10;;;;;;;10.57;78.25;99800.48;110753;1269;22223;-73
2023/12/29 12:47:38;;;;;;;4.20;1.10;;;;;;;10.57;78.46;99800.98;110762;1261;22195;-72
2023/12/29 12:50:28;;;;;;;6.80;0.80;;;;;;;10.58;78.13;99803.33;110727;1272;22316;-72
2023/12/29 12:53:20;;;;;;;4.30;1.00;;;;;;;10.59;77.91;99798.52;110772;1267;22219;-73
2023/12/29 12:56:11;;;;;;;3.80;1.00;;;;;;;10.60;77.73;99799.95;110737;1267;22475;-73
2023/12/29 12:59:04;;;;;;;5.00;0.80;;;;;;;10.61;77.91;99809.55;110729;1267;22281;-72
2023/12/29 13:01:55;;;;;;;4.30;1.00;;;;;;;10.59;77.57;99804.31;110768;1271;22138;-73
2023/12/29 13:04:46;;;;;;;4.90;1.00;;;;;;;10.58;77.34;99802.27;110798;1272;22184;-72
2023/12/29 13:07:37;;;;;;;5.20;1.10;;;;;;;10.58;77.68;99796.73;110689;1266;22185;-72
2023/12/29 13:10:28;;;;;;;5.30;0.90;;;;;;;10.58;77.60;99790.74;110750;1257;22230;-72
2023/12/29 13:13:19;;;;;;;5.60;0.90;;;;;;;10.58;77.64;99792.16;110797;1264;22215;-73
2023/12/29 13:16:10;;;;;;;3.70;1.00;;;;;;;10.57;77.29;99782.71;110920;1271;22288;-72
2023/12/29 13:19:18;;;;;;;5.20;0.90;;;;;;;10.56;77.48;99790.83;110809;1270;22753;-73
2023/12/29 13:22:11;;;;;;;6.70;1.40;;;;;;;10.54;77.12;99798.56;110841;1269;22354;-72
2023/12/29 13:25:07;;;;;;;6.10;1.10;;;;;;;10.52;77.31;99796.77;110921;1272;23004;-72
2023/12/29 13:27:58;;;;;;;5.20;1.20;;;;;;;10.50;77.28;99795.28;110913;1269;22139;-73